Oscoda, Michigan
Current Conditions -  °F | °C
As of 4:33 AM on Friday 24 Oct 2014 (Local Time) from KOSC Reporting Station
Overcast Overcast  
Wind Chill:   Ceiling: 9000
Heat Index:   Visibility: 7mi
Dew Point:   Wind: 0mph
Humidity: 97%   Direction: NA
Pressure: 30.03"   Gusts: NA
Location:  44.42°N, 83.33°W
Report Text: KOSC 240833Z AUTO 00000KT 7SM OVC090 03/02 A3003 RMK AO2 T00350030
Loading
Personal Weather Stations






























Interactive Weather Map
Tropical Storm Tracking
New forecast layout! Learn more

10-Day Weather Forecast

Advertisements
Track Severe Weather on mobile